createdAt,value
2023-02-11T00:00:24.736Z,25.60
2023-02-11T00:02:59.256Z,25.70
2023-02-11T00:05:32.384Z,25.70
2023-02-11T00:08:05.636Z,25.70
2023-02-11T00:10:38.741Z,25.70
2023-02-11T00:13:11.825Z,25.70
2023-02-11T00:15:44.940Z,25.70
2023-02-11T00:18:19.444Z,25.70
2023-02-11T00:20:52.501Z,25.70
2023-02-11T00:23:25.584Z,25.70
2023-02-11T00:25:58.697Z,25.70
2023-02-11T00:28:31.868Z,25.70
2023-02-11T00:31:05.280Z,25.70
2023-02-11T00:33:39.799Z,25.70
2023-02-11T00:36:14.762Z,25.70
2023-02-11T00:38:48.387Z,25.70
2023-02-11T00:41:22.230Z,25.70
2023-02-11T00:43:55.345Z,25.70
2023-02-11T00:46:28.485Z,25.70
2023-02-11T00:49:02.992Z,25.70
2023-02-11T00:51:36.067Z,25.70
2023-02-11T00:54:10.094Z,25.70
2023-02-11T00:56:44.087Z,25.70
2023-02-11T00:59:17.184Z,25.70
2023-02-11T01:01:50.448Z,25.70
2023-02-11T01:04:24.914Z,25.70
2023-02-11T01:06:58.493Z,25.70
2023-02-11T01:09:31.943Z,25.70
2023-02-11T01:12:05.296Z,25.70
2023-02-11T01:14:38.748Z,25.70
2023-02-11T01:17:11.829Z,25.70
2023-02-11T01:19:46.260Z,25.70
2023-02-11T01:22:19.357Z,25.70
2023-02-11T01:24:53.556Z,25.70
2023-02-11T01:27:26.657Z,25.70
2023-02-11T01:29:59.760Z,25.70
2023-02-11T01:32:32.835Z,25.70
2023-02-11T01:35:08.110Z,25.70
2023-02-11T01:37:42.010Z,25.70
2023-02-11T01:40:16.012Z,25.70
2023-02-11T01:42:51.043Z,25.70
2023-02-11T01:45:42.474Z,25.70
2023-02-11T01:48:16.861Z,25.70
2023-02-11T01:50:53.603Z,25.70
2023-02-11T01:53:44.528Z,25.70
2023-02-11T01:56:36.469Z,25.70
2023-02-11T01:59:14.190Z,25.70
2023-02-11T02:01:50.252Z,25.70
2023-02-11T02:04:27.224Z,25.70
2023-02-11T02:07:07.827Z,25.70
2023-02-11T02:09:44.419Z,25.70
2023-02-11T02:12:17.667Z,25.70
2023-02-11T02:14:50.783Z,25.70
2023-02-11T02:17:28.749Z,25.70
2023-02-11T02:20:16.294Z,25.70
2023-02-11T02:23:13.105Z,25.70
2023-02-11T02:25:58.251Z,25.70
2023-02-11T02:28:46.164Z,25.70
2023-02-11T02:31:36.698Z,25.70
2023-02-11T02:34:14.678Z,25.70
2023-02-11T02:36:50.670Z,25.70
2023-02-11T02:39:26.292Z,25.70
2023-02-11T02:41:59.376Z,25.70
2023-02-11T02:44:32.666Z,25.70
2023-02-11T02:47:05.766Z,25.70
2023-02-11T02:49:40.208Z,25.70
2023-02-11T02:52:17.367Z,25.70
2023-02-11T02:55:20.686Z,25.70
2023-02-11T02:58:03.633Z,25.70
2023-02-11T03:00:39.141Z,25.70
2023-02-11T03:03:18.407Z,25.70
2023-02-11T03:05:56.531Z,25.70
2023-02-11T03:08:33.224Z,25.70
2023-02-11T03:11:06.608Z,25.70
2023-02-11T03:13:41.212Z,25.70
2023-02-11T03:16:16.070Z,25.70
2023-02-11T03:18:51.039Z,25.70
2023-02-11T03:21:25.815Z,25.70
2023-02-11T03:24:01.618Z,25.70
2023-02-11T03:26:37.056Z,25.70
2023-02-11T03:29:16.450Z,25.70
2023-02-11T03:31:54.490Z,25.70
2023-02-11T03:34:31.181Z,25.70
2023-02-11T03:37:08.430Z,25.70
2023-02-11T03:39:44.043Z,25.70
2023-02-11T03:42:17.740Z,25.70
2023-02-11T03:44:53.316Z,25.60
2023-02-11T03:47:28.549Z,25.70
2023-02-11T03:50:03.175Z,25.60
2023-02-11T03:52:38.240Z,25.60
2023-02-11T03:55:14.131Z,25.60
2023-02-11T03:57:47.606Z,25.60
2023-02-11T04:00:20.787Z,25.60
2023-02-11T04:02:53.900Z,25.60
2023-02-11T04:05:26.988Z,25.60
2023-02-11T04:08:01.526Z,25.50
2023-02-11T04:10:34.601Z,25.60
2023-02-11T04:13:07.713Z,25.50
2023-02-11T04:15:40.780Z,25.50
2023-02-11T04:18:13.874Z,25.50
2023-02-11T04:20:46.976Z,25.50
2023-02-11T04:23:21.510Z,25.50
2023-02-11T04:25:54.598Z,25.50
2023-02-11T04:28:29.442Z,25.50
2023-02-11T04:31:02.859Z,25.50
2023-02-11T04:33:35.947Z,25.50
2023-02-11T04:36:09.257Z,25.50
2023-02-11T04:38:43.709Z,25.50
2023-02-11T04:41:16.761Z,25.50
2023-02-11T04:43:49.806Z,25.50
2023-02-11T04:46:22.970Z,25.50
2023-02-11T04:48:56.109Z,25.50
2023-02-11T04:51:29.307Z,25.50
2023-02-11T04:54:05.760Z,25.50
2023-02-11T04:56:38.843Z,25.50
2023-02-11T04:59:13.285Z,25.50
2023-02-11T05:01:46.394Z,25.50
2023-02-11T05:04:19.503Z,25.50
2023-02-11T05:06:52.603Z,25.50
2023-02-11T05:09:27.098Z,25.50
2023-02-11T05:12:00.217Z,25.50
2023-02-11T05:14:33.365Z,25.50
2023-02-11T05:17:06.440Z,25.50
2023-02-11T05:19:39.579Z,25.50
2023-02-11T05:22:12.678Z,25.50
2023-02-11T05:24:47.277Z,25.50
2023-02-11T05:27:20.387Z,25.50
2023-02-11T05:29:53.477Z,25.50
2023-02-11T05:32:26.596Z,25.50
2023-02-11T05:34:59.832Z,25.50
2023-02-11T05:37:33.185Z,25.50
2023-02-11T05:40:08.281Z,25.50
2023-02-11T05:42:41.424Z,25.50
2023-02-11T05:45:14.531Z,25.50
2023-02-11T05:47:47.599Z,25.50
2023-02-11T05:50:20.869Z,25.40
2023-02-11T05:52:58.449Z,25.50
2023-02-11T05:55:33.482Z,25.50
2023-02-11T05:58:07.927Z,25.40
2023-02-11T06:00:41.005Z,25.50
2023-02-11T06:03:14.118Z,25.50
2023-02-11T06:05:47.374Z,25.50
2023-02-11T06:08:20.464Z,25.50
2023-02-11T06:10:54.916Z,25.40
2023-02-11T06:13:28.003Z,25.50
2023-02-11T06:16:02.311Z,25.50
2023-02-11T06:18:35.392Z,25.50
2023-02-11T06:21:08.930Z,25.50
2023-02-11T06:23:42.041Z,25.50
2023-02-11T06:26:19.754Z,25.50
2023-02-11T06:28:52.866Z,25.50
2023-02-11T06:31:26.021Z,25.40
2023-02-11T06:33:59.404Z,25.40
2023-02-11T06:36:32.519Z,25.50
2023-02-11T06:39:05.667Z,25.50
2023-02-11T06:41:40.169Z,25.50
2023-02-11T06:44:13.274Z,25.50
2023-02-11T06:46:46.425Z,25.40
2023-02-11T06:49:19.584Z,25.40
2023-02-11T06:51:52.637Z,25.40
2023-02-11T06:54:25.710Z,25.40
2023-02-11T06:57:00.193Z,25.50
2023-02-11T06:59:33.383Z,25.40
2023-02-11T07:02:06.591Z,25.50
2023-02-11T07:04:39.685Z,25.40
2023-02-11T07:07:12.739Z,25.40
2023-02-11T07:09:45.944Z,25.40
2023-02-11T07:12:20.528Z,25.40
2023-02-11T07:14:54.045Z,25.40
2023-02-11T07:17:27.157Z,25.40
2023-02-11T07:20:00.248Z,25.40
2023-02-11T07:22:34.856Z,25.50
2023-02-11T07:25:08.117Z,25.40
2023-02-11T07:27:42.577Z,25.40
2023-02-11T07:30:16.099Z,25.40
2023-02-11T07:32:49.239Z,25.40
2023-02-11T07:35:22.382Z,25.40
2023-02-11T07:37:55.454Z,25.50
2023-02-11T07:40:28.545Z,25.40
2023-02-11T07:43:03.095Z,25.50
2023-02-11T07:45:39.278Z,25.40
2023-02-11T07:48:12.464Z,25.50
2023-02-11T07:50:45.590Z,25.50
2023-02-11T07:53:18.666Z,25.40
2023-02-11T07:55:52.013Z,25.40
2023-02-11T07:58:26.675Z,25.40
2023-02-11T08:01:02.211Z,25.50
2023-02-11T08:03:35.993Z,25.40
2023-02-11T08:06:10.123Z,25.40
2023-02-11T08:08:43.834Z,25.50
2023-02-11T08:11:18.316Z,25.40
2023-02-11T08:13:53.658Z,25.50
2023-02-11T08:16:28.415Z,25.50
2023-02-11T08:19:03.635Z,25.50
2023-02-11T08:21:36.700Z,25.50
2023-02-11T08:24:10.094Z,25.50
2023-02-11T08:26:43.546Z,25.50
2023-02-11T08:29:18.422Z,25.50
2023-02-11T08:31:51.529Z,25.50
2023-02-11T08:34:24.653Z,25.50
2023-02-11T08:36:57.735Z,25.50
2023-02-11T08:39:30.811Z,25.50
2023-02-11T08:42:03.968Z,25.50
2023-02-11T08:44:38.492Z,25.50
2023-02-11T08:47:11.634Z,25.50
2023-02-11T08:49:44.739Z,25.50
2023-02-11T08:52:17.934Z,25.50
2023-02-11T08:54:51.244Z,25.50
2023-02-11T08:57:24.363Z,25.50
2023-02-11T08:59:58.807Z,25.50
2023-02-11T09:02:31.912Z,25.50
2023-02-11T09:05:05.144Z,25.40
2023-02-11T09:07:38.243Z,25.20
2023-02-11T09:10:11.353Z,25.20
2023-02-11T09:12:44.474Z,25.20
2023-02-11T09:15:18.968Z,25.20
2023-02-11T09:17:52.059Z,25.10
2023-02-11T09:20:26.488Z,25.10
2023-02-11T09:22:59.963Z,25.10
2023-02-11T09:25:33.028Z,25.10
2023-02-11T09:28:06.104Z,25.10
2023-02-11T09:30:40.664Z,25.10
2023-02-11T09:33:13.821Z,25.10
2023-02-11T09:35:46.929Z,25.20
2023-02-11T09:38:20.049Z,25.10
2023-02-11T09:40:53.230Z,25.20
2023-02-11T09:43:28.194Z,25.20
2023-02-11T09:46:03.129Z,25.20
2023-02-11T09:48:39.155Z,25.20
2023-02-11T09:51:18.094Z,25.30
2023-02-11T09:53:52.545Z,25.30
2023-02-11T09:56:26.126Z,25.30
2023-02-11T09:58:59.302Z,25.30
2023-02-11T10:01:37.732Z,25.30
2023-02-11T10:04:15.357Z,25.30
2023-02-11T10:06:50.212Z,25.40
2023-02-11T10:09:29.428Z,25.40
2023-02-11T10:12:16.158Z,25.40
2023-02-11T10:14:53.522Z,25.40
2023-02-11T10:17:33.818Z,25.40
2023-02-11T10:20:17.348Z,25.40
2023-02-11T10:22:51.752Z,25.40
2023-02-11T10:25:26.081Z,25.50
2023-02-11T10:28:00.814Z,25.50
2023-02-11T10:30:35.241Z,25.50
2023-02-11T10:33:14.415Z,25.40
2023-02-11T10:35:47.597Z,25.50
2023-02-11T10:38:20.692Z,25.50
2023-02-11T10:40:53.788Z,25.50
2023-02-11T10:43:28.922Z,25.50
2023-02-11T10:46:03.950Z,25.50
2023-02-11T10:48:39.316Z,25.50
2023-02-11T10:51:19.761Z,25.50
2023-02-11T10:54:13.831Z,25.50
2023-02-11T10:56:50.111Z,25.50
2023-02-11T10:59:28.317Z,25.50
2023-02-11T11:02:02.244Z,25.50
2023-02-11T11:04:38.984Z,25.50
2023-02-11T11:07:14.242Z,25.50
2023-02-11T11:09:55.058Z,25.50
2023-02-11T11:12:30.312Z,25.60
2023-02-11T11:15:05.283Z,25.50
2023-02-11T11:17:38.453Z,25.50
2023-02-11T11:20:19.975Z,25.50
2023-02-11T11:22:54.214Z,25.50
2023-02-11T11:25:28.382Z,25.50
2023-02-11T11:28:02.119Z,25.60
2023-02-11T11:30:40.311Z,25.60
2023-02-11T11:33:20.054Z,25.60
2023-02-11T11:36:02.646Z,25.60
2023-02-11T11:38:36.744Z,25.60
2023-02-11T11:41:24.692Z,25.60
2023-02-11T11:43:58.999Z,25.60
2023-02-11T11:46:34.111Z,25.70
2023-02-11T11:49:11.171Z,25.60
2023-02-11T11:51:47.812Z,25.70
2023-02-11T11:54:21.501Z,25.70
2023-02-11T11:56:56.880Z,25.70
2023-02-11T11:59:30.295Z,25.70
2023-02-11T12:02:12.647Z,25.60
2023-02-11T12:05:03.536Z,25.70
2023-02-11T12:07:44.017Z,25.70
2023-02-11T12:10:25.869Z,25.70
2023-02-11T12:13:03.813Z,25.70
2023-02-11T12:15:40.859Z,25.70
2023-02-11T12:18:18.650Z,25.70
2023-02-11T12:21:00.373Z,25.70
2023-02-11T12:23:39.146Z,25.70
2023-02-11T12:26:15.888Z,25.70
2023-02-11T12:28:54.833Z,25.70
2023-02-11T12:31:32.571Z,25.70
2023-02-11T12:34:24.299Z,25.80
2023-02-11T12:37:02.989Z,25.80
2023-02-11T12:39:42.380Z,25.70
2023-02-11T12:42:42.565Z,25.70
2023-02-11T12:45:21.042Z,25.70
2023-02-11T12:48:01.039Z,25.70
2023-02-11T12:50:38.451Z,25.70
2023-02-11T12:53:19.659Z,25.70
2023-02-11T12:55:57.871Z,25.70
2023-02-11T12:58:44.642Z,25.70
2023-02-11T13:01:20.967Z,25.70
2023-02-11T13:03:55.880Z,25.70
2023-02-11T13:06:31.040Z,25.70
2023-02-11T13:09:05.538Z,25.70
2023-02-11T13:11:41.588Z,25.70
2023-02-11T13:14:17.768Z,25.70
2023-02-11T13:16:51.641Z,25.70
2023-02-11T13:19:27.726Z,25.70
2023-02-11T13:22:06.320Z,25.70
2023-02-11T13:24:44.334Z,25.70
2023-02-11T13:27:35.494Z,25.70
2023-02-11T13:30:23.261Z,25.70
2023-02-11T13:33:07.584Z,25.80
2023-02-11T13:35:41.417Z,25.70
2023-02-11T13:38:19.939Z,25.80
2023-02-11T13:41:01.032Z,25.80
2023-02-11T13:43:35.186Z,25.80
2023-02-11T13:46:11.012Z,25.80
2023-02-11T13:48:47.801Z,25.80
2023-02-11T13:51:36.617Z,25.80
2023-02-11T13:54:19.489Z,25.80
2023-02-11T13:57:10.950Z,25.80
2023-02-11T13:59:47.497Z,25.80
2023-02-11T14:02:44.658Z,25.80
2023-02-11T14:05:41.281Z,25.80
2023-02-11T14:08:38.860Z,25.80
2023-02-11T14:11:30.727Z,25.80
2023-02-11T14:14:15.070Z,25.80
2023-02-11T14:17:06.708Z,25.80
2023-02-11T14:19:43.613Z,25.80
2023-02-11T14:22:19.141Z,25.80
2023-02-11T14:24:54.171Z,25.90
2023-02-11T14:27:38.312Z,25.90
2023-02-11T14:30:32.316Z,25.90
2023-02-11T14:33:20.260Z,25.90
2023-02-11T14:36:02.543Z,25.90
2023-02-11T14:38:41.075Z,25.90
2023-02-11T14:41:19.466Z,25.90
2023-02-11T14:43:55.057Z,25.90
2023-02-11T14:46:30.289Z,25.90
2023-02-11T14:49:04.666Z,25.90
2023-02-11T14:51:41.145Z,25.90
2023-02-11T14:54:17.127Z,25.90
2023-02-11T14:57:06.115Z,25.90
2023-02-11T14:59:39.670Z,25.90
2023-02-11T15:02:21.372Z,26.00
2023-02-11T15:04:55.200Z,26.00
2023-02-11T15:07:29.656Z,26.00
2023-02-11T15:10:03.298Z,26.00
2023-02-11T15:12:36.798Z,26.00
2023-02-11T15:15:14.485Z,26.00
2023-02-11T15:17:47.772Z,26.00
2023-02-11T15:20:23.130Z,26.00
2023-02-11T15:22:59.884Z,26.00
2023-02-11T15:25:34.242Z,26.00
2023-02-11T15:28:16.524Z,26.00
2023-02-11T15:30:57.489Z,26.00
2023-02-11T15:33:32.262Z,26.00
2023-02-11T15:36:06.168Z,26.00
2023-02-11T15:38:41.171Z,26.00
2023-02-11T15:41:34.667Z,26.00
2023-02-11T15:44:27.166Z,26.00
2023-02-11T15:47:00.309Z,26.00
2023-02-11T15:49:33.453Z,26.00
2023-02-11T15:52:08.999Z,26.00
2023-02-11T15:54:47.435Z,26.00
2023-02-11T15:57:21.331Z,26.00
2023-02-11T15:59:55.270Z,26.00
2023-02-11T16:02:31.204Z,26.00
2023-02-11T16:05:05.734Z,26.00
2023-02-11T16:07:40.258Z,26.00
2023-02-11T16:10:26.799Z,26.00
2023-02-11T16:13:04.639Z,26.00
2023-02-11T16:15:52.448Z,26.00
2023-02-11T16:18:38.657Z,26.00
2023-02-11T16:21:15.824Z,26.00
2023-02-11T16:23:53.450Z,26.00
2023-02-11T16:26:30.393Z,26.00
2023-02-11T16:29:11.096Z,26.00
2023-02-11T16:31:50.481Z,26.00
2023-02-11T16:34:24.490Z,26.00
2023-02-11T16:36:57.571Z,26.00
2023-02-11T16:39:30.644Z,26.00
2023-02-11T16:42:07.442Z,26.00
2023-02-11T16:44:40.781Z,26.00
2023-02-11T16:47:17.610Z,26.00
2023-02-11T16:49:50.992Z,26.00
2023-02-11T16:52:24.736Z,26.00
2023-02-11T16:54:58.452Z,26.10
2023-02-11T16:57:33.154Z,26.10
2023-02-11T17:00:07.416Z,26.10
2023-02-11T17:02:40.725Z,26.10
2023-02-11T17:05:18.202Z,26.10
2023-02-11T17:07:51.429Z,26.10
2023-02-11T17:10:24.908Z,26.10
2023-02-11T17:12:59.646Z,26.10
2023-02-11T17:15:33.437Z,26.10
2023-02-11T17:18:07.344Z,26.20
2023-02-11T17:20:44.210Z,26.20
2023-02-11T17:23:19.094Z,26.20
2023-02-11T17:25:58.492Z,26.20
2023-02-11T17:28:33.515Z,26.20
2023-02-11T17:31:08.060Z,26.20
2023-02-11T17:33:41.370Z,26.20
2023-02-11T17:36:14.470Z,26.20
2023-02-11T17:38:47.537Z,26.20
2023-02-11T17:41:20.653Z,26.20
2023-02-11T17:43:58.590Z,26.20
2023-02-11T17:46:32.237Z,26.20
2023-02-11T17:49:05.655Z,26.20
2023-02-11T17:51:39.611Z,26.20
2023-02-11T17:54:13.671Z,26.20
2023-02-11T17:56:49.291Z,26.20
2023-02-11T17:59:25.285Z,26.20
2023-02-11T18:01:58.402Z,26.20
2023-02-11T18:04:31.633Z,26.20
2023-02-11T18:07:05.847Z,26.20
2023-02-11T18:09:39.130Z,26.20
2023-02-11T18:12:12.390Z,26.20
2023-02-11T18:14:46.917Z,26.20
2023-02-11T18:17:20.139Z,26.20
2023-02-11T18:19:56.035Z,26.20
2023-02-11T18:22:29.986Z,26.20
2023-02-11T18:25:03.150Z,26.20
2023-02-11T18:27:36.329Z,26.20
2023-02-11T18:30:15.214Z,26.20
2023-02-11T18:32:48.877Z,26.20
2023-02-11T18:35:22.028Z,26.20
2023-02-11T18:37:55.176Z,26.20
2023-02-11T18:40:28.290Z,26.20
2023-02-11T18:43:01.415Z,26.10
2023-02-11T18:45:35.885Z,26.20
2023-02-11T18:48:09.011Z,26.10
2023-02-11T18:50:43.306Z,26.10
2023-02-11T18:53:16.720Z,26.10
2023-02-11T18:55:50.348Z,26.10
2023-02-11T18:58:23.787Z,26.10
2023-02-11T19:00:58.291Z,26.10
2023-02-11T19:03:31.558Z,26.10
2023-02-11T19:06:04.766Z,26.10
2023-02-11T19:08:37.867Z,26.10
2023-02-11T19:11:11.190Z,26.10
2023-02-11T19:13:44.327Z,26.10
2023-02-11T19:16:19.869Z,26.10
2023-02-11T19:18:53.158Z,26.10
2023-02-11T19:21:26.399Z,26.10
2023-02-11T19:24:00.090Z,26.00
2023-02-11T19:26:33.218Z,26.10
2023-02-11T19:29:06.479Z,26.00
2023-02-11T19:31:43.441Z,26.00
2023-02-11T19:34:17.779Z,26.00
2023-02-11T19:36:51.357Z,26.00
2023-02-11T19:39:24.890Z,25.90
2023-02-11T19:41:58.001Z,25.90
2023-02-11T19:44:31.227Z,25.90
2023-02-11T19:47:07.202Z,25.90
2023-02-11T19:49:41.078Z,25.90
2023-02-11T19:52:14.282Z,25.90
2023-02-11T19:54:47.610Z,25.80
2023-02-11T19:57:20.756Z,25.80
2023-02-11T19:59:56.981Z,25.80
2023-02-11T20:02:31.531Z,25.80
2023-02-11T20:05:05.259Z,25.80
2023-02-11T20:07:38.480Z,25.80
2023-02-11T20:10:11.992Z,25.70
2023-02-11T20:12:45.213Z,25.70
2023-02-11T20:15:18.606Z,25.70
2023-02-11T20:17:53.290Z,25.70
2023-02-11T20:20:26.541Z,25.70
2023-02-11T20:22:59.709Z,25.60
2023-02-11T20:25:32.869Z,25.70
2023-02-11T20:28:05.997Z,25.60
2023-02-11T20:30:39.528Z,25.60
2023-02-11T20:33:14.011Z,25.60
2023-02-11T20:35:47.089Z,25.50
2023-02-11T20:38:20.204Z,25.60
2023-02-11T20:40:53.372Z,25.50
2023-02-11T20:43:26.534Z,25.50
2023-02-11T20:46:02.792Z,25.50
2023-02-11T20:48:37.296Z,25.50
2023-02-11T20:51:11.280Z,25.50
2023-02-11T20:53:47.887Z,25.50
2023-02-11T20:56:22.795Z,25.50
2023-02-11T20:58:57.676Z,25.50
2023-02-11T21:01:31.787Z,25.50
2023-02-11T21:04:07.547Z,25.40
2023-02-11T21:06:41.693Z,25.50
2023-02-11T21:09:16.313Z,25.40
2023-02-11T21:11:49.514Z,25.40
2023-02-11T21:14:24.140Z,25.40
2023-02-11T21:16:57.536Z,25.40
2023-02-11T21:19:32.070Z,25.40
2023-02-11T21:22:05.333Z,25.30
2023-02-11T21:24:38.525Z,25.40
2023-02-11T21:27:11.642Z,25.30
2023-02-11T21:29:53.878Z,25.30
2023-02-11T21:32:27.899Z,25.30
2023-02-11T21:35:02.596Z,25.30
2023-02-11T21:37:35.745Z,25.30
2023-02-11T21:40:09.636Z,25.30
2023-02-11T21:42:43.128Z,25.30
2023-02-11T21:45:16.285Z,25.30
2023-02-11T21:47:49.523Z,25.30
2023-02-11T21:50:23.978Z,25.30
2023-02-11T21:52:57.060Z,25.30
2023-02-11T21:55:30.170Z,25.30
2023-02-11T21:58:03.304Z,25.30
2023-02-11T22:00:36.822Z,25.40
2023-02-11T22:03:09.885Z,25.40
2023-02-11T22:05:44.300Z,25.40
2023-02-11T22:08:19.874Z,25.30
2023-02-11T22:10:53.350Z,25.40
2023-02-11T22:13:26.562Z,25.30
2023-02-11T22:16:00.645Z,25.40
2023-02-11T22:18:33.961Z,25.30
2023-02-11T22:21:09.257Z,25.40
2023-02-11T22:23:42.564Z,25.40
2023-02-11T22:26:16.848Z,25.40
2023-02-11T22:28:50.343Z,25.40
2023-02-11T22:31:24.628Z,25.40
2023-02-11T22:33:57.999Z,25.40
2023-02-11T22:36:33.205Z,25.30
2023-02-11T22:39:08.118Z,25.30
2023-02-11T22:41:41.255Z,25.40
2023-02-11T22:44:16.340Z,25.40
2023-02-11T22:46:49.821Z,25.40
2023-02-11T22:49:23.338Z,25.40
2023-02-11T22:51:57.812Z,25.40
2023-02-11T22:54:31.398Z,25.40
2023-02-11T22:57:04.595Z,25.40
2023-02-11T22:59:37.689Z,25.40
2023-02-11T23:02:10.912Z,25.30
2023-02-11T23:04:44.068Z,25.30
2023-02-11T23:07:18.582Z,25.40
2023-02-11T23:09:51.668Z,25.40
2023-02-11T23:12:24.785Z,25.40
2023-02-11T23:14:57.894Z,25.40
2023-02-11T23:17:31.564Z,25.40
2023-02-11T23:20:04.721Z,25.40
2023-02-11T23:22:39.242Z,25.40
2023-02-11T23:25:12.353Z,25.40
2023-02-11T23:27:45.472Z,25.40
2023-02-11T23:30:18.974Z,25.40
2023-02-11T23:32:52.560Z,25.40
2023-02-11T23:35:25.603Z,25.40
2023-02-11T23:38:00.106Z,25.40
2023-02-11T23:40:33.226Z,25.40
2023-02-11T23:43:06.350Z,25.40
2023-02-11T23:45:39.715Z,25.40
2023-02-11T23:48:12.791Z,25.40
2023-02-11T23:50:45.841Z,25.40
2023-02-11T23:53:20.319Z,25.40
2023-02-11T23:55:53.761Z,25.40
2023-02-11T23:58:27.115Z,25.40
